D/T METAR WX W/DIR W/SPE G/SPE TEMP DEWP
20/02/20 06:20 EGHH 200620Z 23017G29KT 9000 -RA SCT009 BKN016 10/08 Q1010 -RA SW (230°) 19.6mph 33.4mph 10°C 8°C
19/02/20 21:20 EGHH 192120Z 23011KT 9999 BKN014 10/08 Q1016 SW (230°) 12.7mph 10°C 8°C
19/02/20 20:50 EGHH 192050Z 24015KT 9999 BKN016 09/07 Q1016 WSW (240°) 17.3mph 9°C 7°C
19/02/20 20:20 EGHH 192020Z 24013KT 9999 SCT014 BKN024 09/07 Q1016 WSW (240°) 15.0mph 9°C 7°C
19/02/20 19:20 EGHH 191920Z 23013G23KT 9999 BKN015 10/08 Q1017 SW (230°) 15.0mph 26.5mph 10°C 8°C
19/02/20 18:20 EGHH 191820Z 24011KT 9999 BKN010 09/08 Q1017 WSW (240°) 12.7mph 9°C 8°C
19/02/20 17:50 EGHH 191750Z 24013G23KT 9999 5000W VCSH BKN015 10/08 Q1017 VCSH WSW (240°) 15.0mph 26.5mph 10°C 8°C
19/02/20 17:20 EGHH 191720Z 24014KT 9999 SCT015 BKN024 10/08 Q1017 WSW (240°) 16.1mph 10°C 8°C
19/02/20 16:50 EGHH 191650Z 23013KT 9999 SCT014 BKN023 10/08 Q1018 SW (230°) 15.0mph 10°C 8°C
19/02/20 16:20 EGHH 191620Z 24013G23KT 9999 SCT015 BKN025 10/08 Q1018 WSW (240°) 15.0mph 26.5mph 10°C 8°C
19/02/20 15:50 EGHH 191550Z 24013KT 9999 SCT015 BKN028 10/08 Q1018 WSW (240°) 15.0mph 10°C 8°C
19/02/20 15:20 EGHH 191520Z 24015KT 9999 SCT015 BKN025 10/08 Q1019 WSW (240°) 17.3mph 10°C 8°C
19/02/20 14:50 EGHH 191450Z 24014KT 9999 SCT012 BKN020 10/08 Q1019 WSW (240°) 16.1mph 10°C 8°C
19/02/20 14:20 EGHH 191420Z 23012KT 9999 SCT012 BKN020 10/09 Q1020 SW (230°) 13.8mph 10°C 9°C
19/02/20 13:50 EGHH 191350Z 23011KT 9999 SCT010 SCT017 10/09 Q1020 SW (230°) 12.7mph 10°C 9°C
19/02/20 13:20 EGHH 191320Z 22010KT 2000 -RA BR SCT009 BKN015 09/08 Q1020 -RA BR SW (220°) 11.5mph 9°C 8°C
19/02/20 12:20 EGHH 191220Z 23009KT 9999 -RA FEW014 SCT023 BKN048 09/08 Q1021 -RA SW (230°) 10.4mph 9°C 8°C
19/02/20 11:50 EGHH 191150Z 23008KT 9999 -RA FEW017 SCT025 BKN048 09/07 Q1022 -RA SW (230°) 9.2mph 9°C 7°C
19/02/20 11:20 EGHH 191120Z 23008KT 9999 -RA FEW028 SCT032 BKN041 09/06 Q1022 -RA SW (230°) 9.2mph 9°C 6°C
19/02/20 10:50 EGHH 191050Z 24007KT 9999 -RADZ SCT030 BKN037 08/06 Q1023 -RA -DZ WSW (240°) 8.1mph 8°C 6°C
19/02/20 10:20 EGHH 191020Z 25009KT 9999 -RADZ FEW028 SCT036 08/05 Q1023 -RA -DZ WSW (250°) 10.4mph 8°C 5°C
19/02/20 09:50 EGHH 190950Z 24008KT 9999 -RADZ FEW028 SCT037 08/05 Q1023 -RA -DZ WSW (240°) 9.2mph 8°C 5°C
19/02/20 09:20 EGHH 190920Z 22005KT 9999 FEW025 07/04 Q1023 SW (220°) 5.8mph 7°C 4°C
19/02/20 08:50 EGHH 190850Z 23004KT 9999 FEW048 06/03 Q1023 SW (230°) 4.6mph 6°C 3°C
19/02/20 08:20 EGHH 190820Z 24004KT 9999 FEW045 06/03 Q1023 WSW (240°) 4.6mph 6°C 3°C
19/02/20 07:50 EGHH 190750Z 25004KT 9999 FEW045 04/02 Q1023 WSW (250°) 4.6mph 4°C 2°C
19/02/20 07:20 EGHH 190720Z 25006KT 9999 FEW045 05/02 Q1022 WSW (250°) 6.9mph 5°C 2°C
19/02/20 06:50 EGHH 190650Z 26009KT CAVOK 05/02 Q1022 W (260°) 10.4mph 5°C 2°C
19/02/20 05:50 EGHH 190550Z 26010KT 9999 FEW048 05/02 Q1022 W (260°) 11.5mph 5°C 2°C
18/02/20 21:20 EGHH 182120Z 29015KT 9999 FEW023 05/03 Q1017 WNW (290°) 17.3mph 5°C 3°C
18/02/20 20:50 EGHH 182050Z 31016KT 3000 SHRA BKN023 05/03 Q1018 SHRA NW (310°) 18.4mph 5°C 3°C
18/02/20 19:50 EGHH 181950Z 25013KT 9999 FEW036 07/05 Q1017 WSW (250°) 15.0mph 7°C 5°C
18/02/20 19:20 EGHH 181920Z 25011KT 9999 FEW022 07/05 Q1017 WSW (250°) 12.7mph 7°C 5°C
18/02/20 18:50 EGHH 181850Z 25011KT 9999 FEW014 SCT030 07/05 Q1017 WSW (250°) 12.7mph 7°C 5°C
18/02/20 17:50 EGHH 181750Z 26013KT 6000 SHRA SCT012 SCT024 09/07 Q1017 SHRA W (260°) 15.0mph 9°C 7°C
18/02/20 16:50 EGHH 181650Z 25013KT 9999 -SHRA SCT017 BKN037 09/07 Q1017 -SHRA WSW (250°) 15.0mph 9°C 7°C
18/02/20 16:20 EGHH 181620Z 25017KT 9999 6000S -SHRA SCT019 BKN044 09/07 Q1018 RERA -SHRA WSW (250°) 19.6mph 9°C 7°C
18/02/20 15:20 EGHH 181520Z 24015KT 9999 BKN020 10/06 Q1018 WSW (240°) 17.3mph 10°C 6°C
18/02/20 14:50 EGHH 181450Z 25016G26KT 9999 FEW018 BKN044 10/06 Q1019 WSW (250°) 18.4mph 29.9mph 10°C 6°C
18/02/20 14:20 EGHH 181420Z 24015KT 9999 FEW015 BKN032 09/07 Q1019 WSW (240°) 17.3mph 9°C 7°C
18/02/20 13:20 EGHH 181320Z 24017G28KT 9999 BKN024 10/06 Q1020 WSW (240°) 19.6mph 32.2mph 10°C 6°C
18/02/20 12:50 EGHH 181250Z 24018G28KT 9999 SCT021 BKN025 10/07 Q1020 WSW (240°) 20.7mph 32.2mph 10°C 7°C
18/02/20 12:20 EGHH 181220Z 25019G31KT 9999 FEW024 BKN027 10/05 Q1021 WSW (250°) 21.9mph 35.7mph 10°C 5°C
18/02/20 11:20 EGHH 181120Z 25017KT 9999 BKN027 10/05 Q1022 WSW (250°) 19.6mph 10°C 5°C
18/02/20 10:50 EGHH 181050Z 24014KT 9999 SCT027 10/05 Q1022 WSW (240°) 16.1mph 10°C 5°C
18/02/20 10:20 EGHH 181020Z 25014KT 9999 SCT024 09/04 Q1022 WSW (250°) 16.1mph 9°C 4°C
18/02/20 09:50 EGHH 180950Z 25012KT 9999 SCT024 09/05 Q1022 WSW (250°) 13.8mph 9°C 5°C
18/02/20 09:20 EGHH 180920Z 24010KT 9999 FEW045 09/05 Q1022 WSW (240°) 11.5mph 9°C 5°C